Benbrook, Texas
Current Conditions -  °F | °C
As of 9:52 AM on Friday 24 Oct 2014 (Local Time) from KNFW Reporting Station
Few Clouds Few Clouds  
Wind Chill: 74°   Ceiling: Unl
Heat Index: 74°   Visibility: 10mi
Dew Point: 55°   Wind: 10mph
Humidity: 52%   Direction: 170°S
Pressure: 30.21"   Gusts: NA
Location:  32.68°N, 97.45°W
Report Text: KNFW 241452Z 17009KT 10SM FEW060 FEW250 23/13 A3021 RMK AO2 SLP210 T02330128 53014 VISNO N $
Loading
Personal Weather Stations






























Interactive Weather Map
Tropical Storm Tracking
New forecast layout! Learn more

10-Day Weather Forecast

Advertisements
Track Severe Weather on mobile